createdAt,value
2018-03-17T00:00:28.807Z,85.04
2018-03-17T00:02:57.257Z,85.43
2018-03-17T00:05:25.671Z,84.63
2018-03-17T00:07:54.151Z,85.07
2018-03-17T00:10:22.555Z,86.14
2018-03-17T00:12:50.981Z,86.78
2018-03-17T00:15:19.435Z,86.61
2018-03-17T00:17:47.839Z,86.50
2018-03-17T00:20:16.285Z,86.34
2018-03-17T00:22:44.749Z,86.31
2018-03-17T00:25:13.170Z,86.05
2018-03-17T00:27:41.601Z,86.19
2018-03-17T00:30:10.063Z,85.65
2018-03-17T00:32:38.480Z,85.61
2018-03-17T00:35:06.901Z,87.30
2018-03-17T00:37:35.346Z,87.78
2018-03-17T00:40:03.805Z,87.43
2018-03-17T00:42:32.221Z,86.74
2018-03-17T00:45:00.695Z,87.06
2018-03-17T00:47:29.106Z,87.76
2018-03-17T00:49:57.526Z,86.97
2018-03-17T00:52:26.016Z,87.39
2018-03-17T00:54:54.442Z,87.29
2018-03-17T00:57:22.853Z,86.60
2018-03-17T00:59:51.312Z,86.46
2018-03-17T01:02:19.726Z,86.56
2018-03-17T01:04:48.144Z,86.71
2018-03-17T01:07:16.586Z,86.64
2018-03-17T01:09:44.994Z,86.66
2018-03-17T01:12:13.402Z,86.33
2018-03-17T01:14:41.907Z,86.31
2018-03-17T01:17:10.313Z,86.35
2018-03-17T01:19:38.757Z,85.77
2018-03-17T01:22:07.212Z,85.80
2018-03-17T01:24:35.628Z,85.22
2018-03-17T01:27:04.074Z,85.57
2018-03-17T01:29:32.548Z,85.33
2018-03-17T01:32:00.997Z,85.24
2018-03-17T01:34:29.435Z,85.47
2018-03-17T01:36:57.907Z,85.68
2018-03-17T01:39:26.323Z,85.35
2018-03-17T01:41:54.738Z,84.90
2018-03-17T01:44:23.209Z,84.46
2018-03-17T01:46:51.635Z,84.58
2018-03-17T01:49:20.059Z,83.79
2018-03-17T01:51:48.525Z,84.71
2018-03-17T01:54:28.846Z,84.57
2018-03-17T01:56:57.313Z,84.46
2018-03-17T01:59:25.729Z,84.74
2018-03-17T02:01:54.152Z,84.27
2018-03-17T02:04:22.636Z,84.25
2018-03-17T02:06:51.057Z,83.79
2018-03-17T02:09:19.478Z,83.55
2018-03-17T02:11:47.959Z,83.21
2018-03-17T02:14:16.446Z,82.73
2018-03-17T02:16:44.875Z,82.89
2018-03-17T02:19:13.349Z,83.24
2018-03-17T02:21:41.750Z,82.76
2018-03-17T02:24:10.181Z,82.92
2018-03-17T02:26:38.722Z,82.25
2018-03-17T02:29:07.165Z,82.30
2018-03-17T02:31:35.578Z,82.39
2018-03-17T02:34:04.065Z,82.46
2018-03-17T02:36:32.496Z,82.83
2018-03-17T02:39:00.910Z,83.07
2018-03-17T02:41:29.367Z,82.62
2018-03-17T02:43:57.796Z,82.67
2018-03-17T02:46:26.229Z,82.77
2018-03-17T02:48:54.671Z,82.32
2018-03-17T02:51:23.142Z,82.47
2018-03-17T02:53:51.574Z,82.58
2018-03-17T02:56:20.060Z,82.37
2018-03-17T02:58:48.470Z,82.19
2018-03-17T03:01:16.889Z,81.97
2018-03-17T03:03:45.359Z,81.56
2018-03-17T03:06:13.762Z,81.98
2018-03-17T03:08:42.187Z,82.11
2018-03-17T03:11:10.655Z,82.26
2018-03-17T03:13:39.084Z,81.90
2018-03-17T03:16:07.495Z,82.16
2018-03-17T03:18:35.942Z,82.00
2018-03-17T03:21:04.353Z,81.79
2018-03-17T03:23:32.767Z,81.73
2018-03-17T03:26:01.244Z,83.08
2018-03-17T03:28:29.658Z,83.13
2018-03-17T03:30:58.085Z,82.76
2018-03-17T03:33:26.552Z,82.78
2018-03-17T03:35:54.972Z,82.22
2018-03-17T03:38:23.391Z,82.36
2018-03-17T03:40:51.860Z,82.42
2018-03-17T03:43:20.284Z,82.00
2018-03-17T03:45:48.686Z,82.08
2018-03-17T03:48:17.143Z,81.99
2018-03-17T03:50:45.550Z,82.44
2018-03-17T03:53:13.960Z,82.08
2018-03-17T03:55:42.436Z,82.33
2018-03-17T03:58:10.859Z,82.91
2018-03-17T04:00:39.316Z,82.55
2018-03-17T04:03:07.790Z,82.77
2018-03-17T04:05:36.222Z,81.94
2018-03-17T04:08:04.636Z,81.97
2018-03-17T04:10:33.088Z,82.13
2018-03-17T04:13:01.518Z,81.71
2018-03-17T04:15:29.934Z,81.55
2018-03-17T04:17:58.404Z,81.38
2018-03-17T04:20:26.824Z,81.60
2018-03-17T04:22:55.266Z,82.03
2018-03-17T04:25:23.734Z,81.73
2018-03-17T04:27:52.156Z,81.68
2018-03-17T04:30:20.570Z,82.03
2018-03-17T04:32:49.022Z,82.06
2018-03-17T04:35:17.441Z,82.08
2018-03-17T04:37:45.854Z,81.80
2018-03-17T04:40:14.309Z,81.30
2018-03-17T04:42:42.716Z,81.61
2018-03-17T04:45:11.171Z,81.85
2018-03-17T04:47:39.631Z,81.89
2018-03-17T04:50:08.034Z,81.41
2018-03-17T04:52:36.446Z,81.73
2018-03-17T04:55:04.902Z,81.91
2018-03-17T04:57:33.308Z,82.14
2018-03-17T05:00:01.745Z,81.99
2018-03-17T05:02:30.217Z,82.39
2018-03-17T05:04:58.635Z,82.24
2018-03-17T05:07:27.060Z,82.32
2018-03-17T05:09:55.588Z,82.35
2018-03-17T05:12:23.999Z,82.92
2018-03-17T05:14:52.409Z,82.84
2018-03-17T05:17:20.882Z,83.37
2018-03-17T05:19:49.305Z,82.83
2018-03-17T05:22:17.728Z,83.12
2018-03-17T05:24:46.183Z,82.96
2018-03-17T05:27:14.604Z,82.54
2018-03-17T05:29:43.083Z,82.43
2018-03-17T05:32:11.560Z,82.05
2018-03-17T05:34:39.978Z,80.88
2018-03-17T05:37:08.402Z,81.94
2018-03-17T05:39:36.874Z,81.42
2018-03-17T05:42:05.286Z,81.20
2018-03-17T05:44:33.715Z,81.59
2018-03-17T05:47:02.191Z,81.09
2018-03-17T05:49:30.598Z,81.35
2018-03-17T05:51:59.023Z,81.50
2018-03-17T05:54:27.575Z,81.34
2018-03-17T05:56:56.000Z,81.75
2018-03-17T05:59:24.455Z,81.33
2018-03-17T06:01:52.950Z,82.25
2018-03-17T06:04:21.369Z,81.83
2018-03-17T06:06:49.788Z,81.82
2018-03-17T06:09:18.260Z,81.07
2018-03-17T06:11:46.687Z,80.57
2018-03-17T06:14:15.114Z,80.69
2018-03-17T06:16:43.584Z,80.69
2018-03-17T06:19:12.007Z,80.25
2018-03-17T06:21:40.432Z,80.47
2018-03-17T06:24:08.908Z,80.56
2018-03-17T06:26:37.323Z,79.66
2018-03-17T06:29:05.756Z,79.55
2018-03-17T06:31:34.230Z,80.21
2018-03-17T06:34:02.652Z,80.01
2018-03-17T06:36:31.096Z,79.05
2018-03-17T06:38:59.578Z,79.17
2018-03-17T06:41:28.013Z,78.83
2018-03-17T06:43:56.443Z,78.61
2018-03-17T06:46:24.897Z,78.43
2018-03-17T06:48:53.323Z,79.46
2018-03-17T06:51:21.751Z,78.55
2018-03-17T06:53:50.220Z,78.44
2018-03-17T06:56:18.659Z,78.25
2018-03-17T06:58:47.083Z,79.15
2018-03-17T07:01:15.569Z,78.63
2018-03-17T07:03:43.988Z,79.32
2018-03-17T07:06:12.412Z,78.82
2018-03-17T07:08:40.872Z,78.49
2018-03-17T07:11:09.296Z,77.99
2018-03-17T07:13:37.710Z,77.35
2018-03-17T07:16:06.192Z,77.33
2018-03-17T07:18:34.613Z,76.94
2018-03-17T07:21:03.976Z,76.64
2018-03-17T07:23:32.879Z,76.33
2018-03-17T07:26:01.297Z,76.30
2018-03-17T07:28:29.717Z,78.95
2018-03-17T07:30:58.204Z,79.48
2018-03-17T07:33:26.617Z,78.85
2018-03-17T07:35:55.058Z,78.52
2018-03-17T07:38:23.622Z,76.61
2018-03-17T07:40:52.042Z,75.64
2018-03-17T07:43:20.499Z,77.10
2018-03-17T07:45:48.977Z,75.52
2018-03-17T07:48:17.408Z,74.49
2018-03-17T07:50:45.845Z,73.65
2018-03-17T07:53:14.331Z,73.23
2018-03-17T07:55:42.757Z,72.98
2018-03-17T07:58:11.194Z,72.70
2018-03-17T08:00:39.658Z,71.26
2018-03-17T08:03:08.089Z,71.27
2018-03-17T08:05:36.498Z,71.61
2018-03-17T08:08:04.977Z,71.32
2018-03-17T08:10:33.399Z,71.31
2018-03-17T08:13:01.826Z,70.75
2018-03-17T08:15:30.296Z,71.55
2018-03-17T08:17:58.705Z,69.99
2018-03-17T08:20:27.119Z,69.71
2018-03-17T08:22:55.570Z,70.04
2018-03-17T08:25:23.988Z,69.66
2018-03-17T08:27:52.412Z,68.99
2018-03-17T08:30:20.877Z,69.59
2018-03-17T08:32:49.300Z,70.03
2018-03-17T08:35:17.772Z,70.41
2018-03-17T08:37:46.236Z,70.77
2018-03-17T08:40:14.657Z,70.45
2018-03-17T08:42:43.076Z,70.46
2018-03-17T08:45:11.543Z,70.36
2018-03-17T08:47:39.962Z,70.39
2018-03-17T08:50:08.369Z,69.70
2018-03-17T08:52:36.823Z,70.04
2018-03-17T08:55:05.252Z,70.25
2018-03-17T08:57:33.660Z,69.92
2018-03-17T09:00:02.120Z,69.31
2018-03-17T09:02:30.538Z,68.72
2018-03-17T09:04:58.966Z,69.01
2018-03-17T09:07:27.418Z,68.43
2018-03-17T09:09:55.846Z,68.01
2018-03-17T09:12:24.268Z,67.37
2018-03-17T09:14:52.715Z,67.53
2018-03-17T09:17:21.127Z,67.84
2018-03-17T09:19:49.534Z,67.39
2018-03-17T09:22:21.924Z,67.57
2018-03-17T09:24:50.347Z,67.26
2018-03-17T09:27:18.745Z,67.14
2018-03-17T09:29:47.208Z,66.05
2018-03-17T09:32:15.615Z,65.94
2018-03-17T09:34:44.036Z,66.12
2018-03-17T09:37:12.492Z,65.54
2018-03-17T09:39:40.911Z,65.90
2018-03-17T09:42:09.310Z,65.31
2018-03-17T09:44:37.753Z,65.42
2018-03-17T09:47:06.157Z,64.64
2018-03-17T09:49:34.573Z,63.87
2018-03-17T09:52:03.029Z,64.92
2018-03-17T09:54:31.459Z,64.11
2018-03-17T09:56:59.870Z,64.43
2018-03-17T09:59:28.370Z,64.33
2018-03-17T10:01:56.813Z,63.97
2018-03-17T10:04:25.231Z,63.89
2018-03-17T10:06:53.692Z,100.00
2018-03-17T10:09:22.118Z,100.00
2018-03-17T10:11:50.526Z,61.91
2018-03-17T10:14:18.966Z,63.07
2018-03-17T10:16:47.384Z,64.97
2018-03-17T10:19:15.821Z,100.00
2018-03-17T10:21:44.288Z,64.62
2018-03-17T10:24:12.724Z,100.00
2018-03-17T10:26:41.229Z,100.00
2018-03-17T10:29:09.734Z,100.00
2018-03-17T10:31:38.362Z,100.00
2018-03-17T10:34:06.813Z,100.00
2018-03-17T10:36:35.307Z,100.00
2018-03-17T10:39:03.798Z,100.00
2018-03-17T10:41:32.227Z,100.00
2018-03-17T10:44:00.752Z,100.00
2018-03-17T10:46:29.180Z,100.00
2018-03-17T10:48:57.610Z,100.00
2018-03-17T10:51:26.097Z,100.00
2018-03-17T10:53:54.526Z,100.00
2018-03-17T10:56:22.964Z,100.00
2018-03-17T10:58:51.466Z,100.00
2018-03-17T11:01:20.885Z,100.00
2018-03-17T11:03:49.325Z,100.00
2018-03-17T11:06:17.875Z,100.00
2018-03-17T11:08:46.303Z,100.00
2018-03-17T11:11:14.754Z,100.00
2018-03-17T11:13:43.228Z,100.00
2018-03-17T11:16:11.664Z,100.00
2018-03-17T11:18:40.120Z,100.00
2018-03-17T11:21:08.616Z,100.00
2018-03-17T11:23:37.056Z,100.00
2018-03-17T11:26:05.503Z,100.00
2018-03-17T11:28:33.986Z,100.00
2018-03-17T11:31:02.456Z,100.00
2018-03-17T11:33:30.888Z,100.00
2018-03-17T11:35:59.362Z,100.00
2018-03-17T11:38:28.074Z,100.00
2018-03-17T11:40:56.530Z,100.00
2018-03-17T11:43:25.016Z,100.00
2018-03-17T11:45:53.467Z,100.00
2018-03-17T11:48:21.898Z,100.00
2018-03-17T11:50:50.366Z,100.00
2018-03-17T11:53:18.812Z,100.00
2018-03-17T11:55:47.248Z,100.00
2018-03-17T11:58:15.733Z,100.00
2018-03-17T12:00:44.167Z,100.00
2018-03-17T12:03:12.586Z,100.00
2018-03-17T12:05:41.073Z,100.00
2018-03-17T12:10:33.277Z,59.48
2018-03-17T12:13:01.757Z,60.27
2018-03-17T12:15:30.176Z,59.59
2018-03-17T12:17:58.625Z,59.90
2018-03-17T12:20:27.066Z,60.23
2018-03-17T12:22:55.476Z,60.44
2018-03-17T12:25:23.888Z,60.55
2018-03-17T12:27:52.374Z,60.07
2018-03-17T12:30:20.784Z,60.26
2018-03-17T12:32:49.196Z,60.95
2018-03-17T12:35:17.653Z,60.35
2018-03-17T12:37:46.067Z,60.58
2018-03-17T12:40:14.477Z,60.00
2018-03-17T12:42:42.922Z,59.51
2018-03-17T12:45:11.318Z,59.78
2018-03-17T12:47:39.731Z,58.91
2018-03-17T12:50:08.185Z,59.85
2018-03-17T12:52:36.617Z,59.87
2018-03-17T12:55:05.056Z,60.10
2018-03-17T12:57:33.518Z,59.51
2018-03-17T13:00:01.934Z,59.80
2018-03-17T13:02:30.361Z,60.50
2018-03-17T13:04:58.803Z,60.71
2018-03-17T13:07:27.219Z,60.73
2018-03-17T13:09:55.628Z,60.07
2018-03-17T13:12:24.082Z,59.87
2018-03-17T13:14:52.504Z,59.53
2018-03-17T13:17:20.923Z,60.28
2018-03-17T13:19:49.410Z,60.03
2018-03-17T13:22:17.836Z,60.62
2018-03-17T13:24:46.274Z,61.09
2018-03-17T13:27:26.627Z,61.65
2018-03-17T13:29:55.042Z,60.40
2018-03-17T13:32:35.343Z,61.52
2018-03-17T13:35:03.782Z,61.08
2018-03-17T13:37:38.499Z,61.49
2018-03-17T13:43:07.152Z,62.37
2018-03-17T13:45:35.564Z,61.61
2018-03-17T13:48:04.019Z,62.81
2018-03-17T13:50:32.485Z,64.13
2018-03-17T13:53:00.904Z,63.51
2018-03-17T13:55:29.323Z,63.46
2018-03-17T13:57:57.810Z,63.92
2018-03-17T14:00:26.216Z,64.20
2018-03-17T14:02:54.626Z,64.65
2018-03-17T14:05:23.078Z,64.67
2018-03-17T14:07:51.486Z,64.47
2018-03-17T14:10:19.904Z,63.60
2018-03-17T14:12:48.346Z,63.10
2018-03-17T14:15:16.763Z,62.70
2018-03-17T14:17:45.186Z,62.79
2018-03-17T14:20:13.640Z,63.30
2018-03-17T14:22:42.048Z,62.27
2018-03-17T14:25:10.454Z,63.52
2018-03-17T14:27:40.393Z,64.03
2018-03-17T14:30:08.803Z,64.03
2018-03-17T14:32:37.215Z,63.52
2018-03-17T14:35:05.676Z,64.57
2018-03-17T14:37:34.100Z,64.12
2018-03-17T14:40:02.537Z,64.35
2018-03-17T14:42:30.999Z,64.74
2018-03-17T14:44:59.460Z,64.43
2018-03-17T14:47:27.869Z,63.72
2018-03-17T14:49:56.328Z,63.76
2018-03-17T14:52:24.899Z,64.04
2018-03-17T14:54:53.321Z,65.03
2018-03-17T14:57:21.800Z,64.99
2018-03-17T14:59:50.199Z,66.17
2018-03-17T15:02:18.644Z,65.78
2018-03-17T15:04:47.162Z,65.93
2018-03-17T15:07:15.584Z,65.98
2018-03-17T15:09:43.998Z,65.95
2018-03-17T15:12:12.464Z,65.28
2018-03-17T15:14:40.880Z,64.99
2018-03-17T15:17:09.295Z,65.68
2018-03-17T15:19:37.749Z,64.76
2018-03-17T15:22:06.168Z,65.21
2018-03-17T15:24:34.589Z,63.91
2018-03-17T15:27:03.048Z,64.36
2018-03-17T15:29:31.463Z,64.24
2018-03-17T15:31:59.865Z,63.97
2018-03-17T15:34:28.348Z,63.29
2018-03-17T15:36:56.763Z,63.19
2018-03-17T15:39:25.173Z,63.32
2018-03-17T15:41:53.684Z,62.75
2018-03-17T15:44:22.085Z,62.96
2018-03-17T15:46:50.481Z,62.79
2018-03-17T15:49:18.926Z,63.38
2018-03-17T15:51:47.340Z,64.22
2018-03-17T15:54:15.745Z,63.34
2018-03-17T15:56:44.200Z,62.96
2018-03-17T15:59:12.601Z,63.15
2018-03-17T16:01:41.021Z,63.65
2018-03-17T16:04:09.479Z,63.19
2018-03-17T16:06:37.914Z,63.41
2018-03-17T16:09:06.330Z,63.03
2018-03-17T16:11:34.796Z,63.10
2018-03-17T16:14:03.218Z,62.65
2018-03-17T16:16:31.622Z,62.95
2018-03-17T16:19:00.084Z,63.55
2018-03-17T16:21:28.498Z,63.02
2018-03-17T16:23:56.919Z,61.71
2018-03-17T16:26:25.387Z,62.28
2018-03-17T16:28:53.794Z,61.42
2018-03-17T16:31:22.198Z,62.09
2018-03-17T16:33:50.654Z,61.81
2018-03-17T16:36:19.062Z,61.57
2018-03-17T16:38:49.588Z,61.75
2018-03-17T16:41:19.160Z,60.96
2018-03-17T16:43:47.620Z,61.67
2018-03-17T16:46:16.066Z,62.08
2018-03-17T16:48:44.517Z,61.04
2018-03-17T16:51:12.931Z,61.67
2018-03-17T16:53:41.368Z,61.45
2018-03-17T16:56:09.829Z,60.68
2018-03-17T16:58:38.240Z,61.13
2018-03-17T17:01:06.657Z,60.23
2018-03-17T17:03:35.124Z,60.90
2018-03-17T17:06:03.552Z,60.72
2018-03-17T17:08:31.962Z,60.21
2018-03-17T17:11:00.406Z,60.52
2018-03-17T17:13:28.809Z,60.49
2018-03-17T17:15:57.224Z,59.66
2018-03-17T17:18:25.749Z,59.67
2018-03-17T17:20:54.150Z,60.29
2018-03-17T17:23:22.597Z,60.35
2018-03-17T17:25:51.046Z,59.85
2018-03-17T17:28:19.506Z,60.81
2018-03-17T17:30:47.889Z,60.65
2018-03-17T17:33:16.339Z,60.50
2018-03-17T17:35:44.742Z,60.58
2018-03-17T17:38:13.144Z,59.60
2018-03-17T17:40:41.596Z,60.00
2018-03-17T17:43:10.002Z,60.38
2018-03-17T17:45:38.424Z,60.72
2018-03-17T17:48:06.893Z,61.32
2018-03-17T17:50:35.313Z,60.36
2018-03-17T17:53:03.721Z,60.74
2018-03-17T17:55:32.209Z,60.56
2018-03-17T17:58:00.618Z,60.20
2018-03-17T18:00:29.018Z,60.97
2018-03-17T18:02:57.686Z,60.48
2018-03-17T18:05:26.105Z,60.41
2018-03-17T18:07:54.515Z,60.70
2018-03-17T18:10:22.967Z,61.08
2018-03-17T18:12:51.376Z,61.12
2018-03-17T18:15:19.844Z,61.00
2018-03-17T18:17:48.297Z,61.24
2018-03-17T18:20:16.712Z,62.16
2018-03-17T18:22:45.132Z,62.04
2018-03-17T18:25:13.589Z,61.94
2018-03-17T18:27:41.999Z,61.47
2018-03-17T18:30:10.410Z,62.45
2018-03-17T18:32:38.863Z,62.27
2018-03-17T18:35:07.290Z,62.69
2018-03-17T18:37:35.775Z,63.03
2018-03-17T18:40:04.368Z,62.31
2018-03-17T18:42:32.779Z,62.66
2018-03-17T18:45:01.188Z,62.74
2018-03-17T18:47:29.651Z,62.11
2018-03-17T18:49:58.072Z,63.12
2018-03-17T18:52:26.510Z,62.95
2018-03-17T18:54:54.966Z,62.84
2018-03-17T18:57:23.376Z,61.97
2018-03-17T18:59:51.778Z,62.74
2018-03-17T19:02:20.227Z,63.26
2018-03-17T19:04:48.697Z,62.33
2018-03-17T19:07:17.112Z,62.71
2018-03-17T19:09:45.573Z,62.95
2018-03-17T19:12:13.988Z,61.92
2018-03-17T19:14:42.404Z,62.26
2018-03-17T19:17:10.863Z,62.76
2018-03-17T19:19:39.282Z,62.10
2018-03-17T19:22:07.714Z,62.01
2018-03-17T19:24:36.170Z,62.44
2018-03-17T19:27:04.584Z,62.02
2018-03-17T19:29:33.000Z,62.02
2018-03-17T19:32:01.455Z,61.88
2018-03-17T19:34:29.866Z,61.95
2018-03-17T19:36:58.266Z,61.82
2018-03-17T19:39:26.932Z,61.71
2018-03-17T19:41:55.344Z,61.73
2018-03-17T19:44:23.803Z,62.24
2018-03-17T19:46:52.272Z,61.90
2018-03-17T19:49:20.670Z,62.03
2018-03-17T19:51:49.080Z,61.46
2018-03-17T19:54:17.534Z,61.69
2018-03-17T19:56:45.954Z,61.26
2018-03-17T19:59:14.359Z,61.95
2018-03-17T20:01:42.803Z,61.87
2018-03-17T20:04:11.219Z,62.32
2018-03-17T20:06:39.656Z,61.51
2018-03-17T20:09:08.122Z,61.90
2018-03-17T20:11:36.540Z,60.85
2018-03-17T20:14:04.950Z,61.34
2018-03-17T20:16:33.408Z,61.04
2018-03-17T20:19:01.823Z,61.27
2018-03-17T20:21:30.237Z,60.39
2018-03-17T20:23:58.696Z,60.69
2018-03-17T20:26:27.106Z,59.77
2018-03-17T20:28:55.534Z,60.22
2018-03-17T20:31:23.991Z,59.86
2018-03-17T20:33:52.402Z,59.83
2018-03-17T20:36:20.805Z,59.24
2018-03-17T20:38:49.242Z,58.90
2018-03-17T20:41:17.712Z,59.50
2018-03-17T20:43:46.118Z,60.02
2018-03-17T20:46:14.581Z,59.29
2018-03-17T20:48:43.001Z,59.45
2018-03-17T20:51:11.418Z,59.16
2018-03-17T20:53:39.877Z,59.66
2018-03-17T20:56:08.309Z,58.83
2018-03-17T20:58:36.724Z,59.02
2018-03-17T21:01:05.170Z,58.61
2018-03-17T21:03:33.574Z,58.49
2018-03-17T21:06:01.978Z,58.27
2018-03-17T21:08:30.759Z,57.61
2018-03-17T21:10:59.209Z,57.48
2018-03-17T21:13:27.632Z,57.97
2018-03-17T21:15:56.100Z,56.72
2018-03-17T21:18:24.524Z,57.86
2018-03-17T21:20:52.936Z,57.63
2018-03-17T21:23:21.390Z,57.02
2018-03-17T21:25:49.807Z,56.30
2018-03-17T21:28:18.234Z,56.68
2018-03-17T21:30:46.699Z,56.36
2018-03-17T21:33:15.106Z,57.28
2018-03-17T21:35:43.524Z,56.33
2018-03-17T21:38:11.965Z,55.71
2018-03-17T21:40:40.382Z,56.31
2018-03-17T21:43:08.786Z,55.30
2018-03-17T21:45:37.273Z,55.38
2018-03-17T21:48:05.766Z,55.34
2018-03-17T21:50:34.186Z,56.20
2018-03-17T21:53:02.652Z,55.28
2018-03-17T21:55:31.068Z,55.77
2018-03-17T21:57:59.470Z,55.72
2018-03-17T22:00:27.929Z,55.97
2018-03-17T22:02:56.335Z,56.51
2018-03-17T22:05:24.744Z,55.24
2018-03-17T22:07:53.208Z,54.59
2018-03-17T22:10:21.628Z,55.91
2018-03-17T22:12:50.034Z,55.53
2018-03-17T22:15:18.493Z,55.64
2018-03-17T22:17:46.909Z,55.67
2018-03-17T22:20:15.328Z,54.95
2018-03-17T22:22:43.809Z,55.73
2018-03-17T22:25:12.233Z,55.32
2018-03-17T22:27:40.658Z,55.49
2018-03-17T22:30:09.144Z,55.06
2018-03-17T22:32:37.559Z,55.10
2018-03-17T22:35:05.976Z,55.88
2018-03-17T22:37:34.418Z,55.70
2018-03-17T22:40:02.841Z,55.84
2018-03-17T22:42:31.261Z,55.69
2018-03-17T22:44:59.706Z,55.62
2018-03-17T22:47:28.110Z,55.73
2018-03-17T22:49:56.524Z,56.13
2018-03-17T22:52:24.982Z,56.53
2018-03-17T22:54:53.399Z,56.18
2018-03-17T22:57:21.820Z,55.96
2018-03-17T22:59:50.286Z,56.33
2018-03-17T23:02:18.735Z,55.50
2018-03-17T23:04:47.177Z,55.85
2018-03-17T23:07:15.650Z,56.15
2018-03-17T23:09:44.071Z,55.80
2018-03-17T23:12:12.490Z,55.93
2018-03-17T23:14:40.937Z,55.52
2018-03-17T23:17:09.342Z,55.75
2018-03-17T23:19:37.755Z,55.30
2018-03-17T23:22:06.202Z,55.94
2018-03-17T23:24:34.602Z,55.34
2018-03-17T23:27:03.012Z,56.05
2018-03-17T23:29:31.487Z,55.63
2018-03-17T23:31:59.900Z,55.37
2018-03-17T23:34:28.321Z,55.86
2018-03-17T23:36:56.957Z,56.10
2018-03-17T23:39:25.383Z,55.49
2018-03-17T23:41:53.820Z,56.01
2018-03-17T23:44:22.282Z,55.45
2018-03-17T23:46:50.706Z,55.39
2018-03-17T23:49:19.144Z,56.63
2018-03-17T23:51:47.638Z,56.60
2018-03-17T23:54:16.096Z,56.73
2018-03-17T23:56:44.528Z,56.26
2018-03-17T23:59:13.012Z,57.44
